Terminal Aerodrome Forecast
Issued by NWS

Home | Current Version | Previous Version | Text Only | Print | Product List | Glossary On
Versions: 1 2 3 4 5 6 7 8 9 10 11 12 13 14 15 16 17 18 19 20 21 22 23 24 25 26 27 28 29 30 31 32 33 34 35 36 37 38 39
000
FTUS42 KGSP 050533
TAFHKY
TAF
KHKY 050533Z 0506/0606 25003KT P6SM SCT080 OVC110
     FM051300 19003KT P6SM -SHRA VCTS SCT030 BKN060CB
     FM051800 20008KT P6SM -SHRA VCTS SCT030 BKN050CB
     FM060000 20007KT P6SM BKN080
     FM060400 21004KT P6SM BKN180=

USA.gov is the U.S. government's official web portal to all federal, state and local government web resources and services.